createdAt,value
2022-08-16T00:00:22.572Z,7.18
2022-08-16T00:02:52.236Z,7.88
2022-08-16T00:05:23.198Z,7.68
2022-08-16T00:07:56.518Z,7.68
2022-08-16T00:10:33.113Z,7.57
2022-08-16T00:13:02.338Z,7.82
2022-08-16T00:15:50.973Z,6.88
2022-08-16T00:18:22.303Z,7.88
2022-08-16T00:20:58.956Z,7.63
2022-08-16T00:23:39.959Z,8.13
2022-08-16T00:26:35.716Z,8.18
2022-08-16T00:28:59.254Z,8.68
2022-08-16T00:31:27.781Z,8.88
2022-08-16T00:34:18.370Z,9.18
2022-08-16T00:36:47.671Z,8.98
2022-08-16T00:39:17.945Z,8.23
2022-08-16T00:41:51.230Z,8.57
2022-08-16T00:44:23.150Z,9.02
2022-08-16T00:47:08.577Z,8.40
2022-08-16T00:49:39.325Z,9.20
2022-08-16T00:52:29.231Z,8.10
2022-08-16T00:54:56.780Z,8.73
2022-08-16T00:57:26.938Z,8.70
2022-08-16T01:00:19.850Z,8.80
2022-08-16T01:02:49.068Z,8.35
2022-08-16T01:05:17.976Z,9.10
2022-08-16T01:07:51.294Z,8.88
2022-08-16T01:10:21.141Z,9.10
2022-08-16T01:13:08.156Z,9.18
2022-08-16T01:15:43.313Z,8.80
2022-08-16T01:18:38.966Z,9.40
2022-08-16T01:21:22.541Z,9.27
2022-08-16T01:24:52.295Z,8.65
2022-08-16T01:27:18.098Z,8.55
2022-08-16T01:29:58.460Z,8.52
2022-08-16T01:32:33.751Z,8.77
2022-08-16T01:35:08.706Z,9.05
2022-08-16T01:37:53.012Z,9.90
2022-08-16T01:40:30.260Z,9.13
2022-08-16T01:42:59.648Z,9.32
2022-08-16T01:45:39.598Z,9.32
2022-08-16T01:48:19.844Z,9.77
2022-08-16T01:51:09.519Z,9.98
2022-08-16T01:53:42.122Z,9.30
2022-08-16T01:56:29.704Z,9.00
2022-08-16T01:59:01.699Z,9.32
2022-08-16T02:01:32.129Z,9.70
2022-08-16T02:04:10.218Z,9.27
2022-08-16T02:06:45.931Z,9.50
2022-08-16T02:09:17.765Z,9.48
2022-08-16T02:11:53.671Z,9.35
2022-08-16T02:14:26.707Z,8.90
2022-08-16T02:16:58.537Z,9.30
2022-08-16T02:20:00.222Z,9.57
2022-08-16T02:22:35.775Z,9.13
2022-08-16T02:25:10.782Z,9.80
2022-08-16T02:27:41.824Z,9.55
2022-08-16T02:30:35.887Z,9.88
2022-08-16T02:33:05.553Z,9.27
2022-08-16T02:35:54.231Z,9.68
2022-08-16T02:38:27.736Z,9.20
2022-08-16T02:40:56.589Z,9.23
2022-08-16T02:43:33.255Z,9.25
2022-08-16T02:46:07.730Z,9.75
2022-08-16T02:48:39.847Z,9.02
2022-08-16T02:51:18.303Z,9.15
2022-08-16T02:53:53.657Z,9.85
2022-08-16T02:56:25.002Z,9.55
2022-08-16T02:59:02.780Z,9.10
2022-08-16T03:01:41.580Z,9.70
2022-08-16T03:04:41.394Z,9.38
2022-08-16T03:07:06.218Z,9.07
2022-08-16T03:09:44.585Z,9.60
2022-08-16T03:12:16.477Z,9.80
2022-08-16T03:14:47.918Z,9.65
2022-08-16T03:17:19.562Z,9.93
2022-08-16T03:20:00.200Z,9.52
2022-08-16T03:22:36.131Z,10.05
2022-08-16T03:25:13.989Z,8.95
2022-08-16T03:27:50.214Z,9.43
2022-08-16T03:30:24.469Z,8.80
2022-08-16T03:33:01.166Z,10.05
2022-08-16T03:35:40.279Z,9.18
2022-08-16T03:38:34.310Z,9.15
2022-08-16T03:41:24.170Z,9.18
2022-08-16T03:43:58.649Z,9.77
2022-08-16T03:46:47.185Z,9.20
2022-08-16T03:49:17.970Z,10.05
2022-08-16T03:51:49.168Z,9.60
2022-08-16T03:54:23.514Z,8.60
2022-08-16T03:56:58.099Z,8.40
2022-08-16T03:59:31.324Z,9.60
2022-08-16T04:02:12.078Z,9.45
2022-08-16T04:04:53.917Z,8.98
2022-08-16T04:07:24.734Z,9.23
2022-08-16T04:09:54.030Z,9.20
2022-08-16T04:12:53.274Z,9.00
2022-08-16T04:15:16.805Z,9.13
2022-08-16T04:17:56.364Z,8.85
2022-08-16T04:20:33.601Z,9.82
2022-08-16T04:23:05.306Z,8.75
2022-08-16T04:25:35.166Z,9.88
2022-08-16T04:28:29.350Z,9.02
2022-08-16T04:30:53.562Z,9.43
2022-08-16T04:33:26.989Z,9.70
2022-08-16T04:35:58.972Z,9.93
2022-08-16T04:38:30.581Z,9.52
2022-08-16T04:40:59.957Z,9.38
2022-08-16T04:43:29.364Z,9.07
2022-08-16T04:46:00.307Z,8.80
2022-08-16T04:48:33.877Z,9.70
2022-08-16T04:51:07.929Z,8.23
2022-08-16T04:53:45.319Z,8.25
2022-08-16T04:56:17.022Z,8.50
2022-08-16T04:58:47.033Z,8.90
2022-08-16T05:01:19.897Z,9.25
2022-08-16T05:04:00.014Z,9.75
2022-08-16T05:06:45.393Z,8.93
2022-08-16T05:09:22.891Z,8.93
2022-08-16T05:11:53.104Z,9.60
2022-08-16T05:14:45.847Z,9.70
2022-08-16T05:17:18.217Z,9.18
2022-08-16T05:19:58.026Z,8.77
2022-08-16T05:22:31.520Z,9.73
2022-08-16T05:25:09.100Z,9.40
2022-08-16T05:27:42.747Z,9.15
2022-08-16T05:30:35.645Z,9.75
2022-08-16T05:33:06.718Z,9.40
2022-08-16T05:35:39.267Z,10.80
2022-08-16T05:38:32.464Z,10.45
2022-08-16T05:41:06.801Z,10.15
2022-08-16T05:43:43.765Z,9.55
2022-08-16T05:46:28.629Z,9.85
2022-08-16T05:49:06.000Z,9.73
2022-08-16T05:51:40.210Z,9.27
2022-08-16T05:54:13.956Z,9.45
2022-08-16T05:56:46.035Z,8.02
2022-08-16T05:59:22.183Z,10.43
2022-08-16T06:01:52.182Z,11.52
2022-08-16T06:04:35.120Z,10.70
2022-08-16T06:07:24.211Z,11.23
2022-08-16T06:10:00.124Z,10.25
2022-08-16T06:12:32.393Z,10.85
2022-08-16T06:15:11.616Z,9.73
2022-08-16T06:17:44.697Z,8.93
2022-08-16T06:20:35.456Z,9.82
2022-08-16T06:23:20.562Z,9.98
2022-08-16T06:26:09.866Z,10.15
2022-08-16T06:28:45.139Z,8.93
2022-08-16T06:31:24.890Z,9.57
2022-08-16T06:33:55.089Z,9.23
2022-08-16T06:36:24.649Z,10.07
2022-08-16T06:39:15.326Z,9.90
2022-08-16T06:41:49.459Z,9.20
2022-08-16T06:44:30.538Z,8.52
2022-08-16T06:47:03.749Z,10.40
2022-08-16T06:49:32.913Z,8.93
2022-08-16T06:52:03.419Z,9.52
2022-08-16T06:54:39.793Z,9.40
2022-08-16T06:57:16.877Z,9.82
2022-08-16T06:59:52.071Z,9.70
2022-08-16T07:02:32.448Z,10.45
2022-08-16T07:05:03.148Z,10.77
2022-08-16T07:07:51.001Z,10.02
2022-08-16T07:10:25.859Z,10.38
2022-08-16T07:13:04.672Z,11.13
2022-08-16T07:15:50.376Z,11.15
2022-08-16T07:18:21.876Z,10.40
2022-08-16T07:20:54.234Z,10.38
2022-08-16T07:23:36.967Z,10.98
2022-08-16T07:26:25.284Z,10.15
2022-08-16T07:28:54.576Z,10.00
2022-08-16T07:31:24.557Z,8.90
2022-08-16T07:34:10.053Z,9.57
2022-08-16T07:36:39.856Z,9.27
2022-08-16T07:39:09.642Z,8.77
2022-08-16T07:41:44.777Z,9.85
2022-08-16T07:44:15.326Z,8.57
2022-08-16T07:46:45.334Z,9.45
2022-08-16T07:49:21.641Z,9.25
2022-08-16T07:51:50.190Z,9.45
2022-08-16T07:54:32.392Z,9.20
2022-08-16T07:57:12.913Z,9.40
2022-08-16T07:59:45.557Z,9.60
2022-08-16T08:02:19.713Z,9.30
2022-08-16T08:04:49.017Z,8.43
2022-08-16T08:07:17.869Z,9.48
2022-08-16T08:09:47.155Z,9.57
2022-08-16T08:12:32.099Z,8.70
2022-08-16T08:15:13.153Z,9.48
2022-08-16T08:17:45.147Z,9.05
2022-08-16T08:20:26.723Z,8.52
2022-08-16T08:23:02.866Z,9.00
2022-08-16T08:25:53.745Z,8.57
2022-08-16T08:28:26.270Z,8.50
2022-08-16T08:31:02.450Z,7.43
2022-08-16T08:33:34.780Z,7.45
2022-08-16T08:36:11.467Z,8.07
2022-08-16T08:38:52.359Z,8.10
2022-08-16T08:41:27.315Z,7.70
2022-08-16T08:43:59.659Z,8.50
2022-08-16T08:46:35.751Z,7.82
2022-08-16T08:49:07.905Z,7.40
2022-08-16T08:51:42.008Z,7.97
2022-08-16T08:54:18.824Z,7.50
2022-08-16T08:56:53.605Z,7.97
2022-08-16T08:59:56.073Z,8.00
2022-08-16T09:02:26.216Z,8.23
2022-08-16T09:04:59.351Z,8.88
2022-08-16T09:07:28.421Z,8.63
2022-08-16T09:10:00.894Z,8.15
2022-08-16T09:12:37.388Z,8.32
2022-08-16T09:15:13.806Z,7.88
2022-08-16T09:17:51.598Z,7.47
2022-08-16T09:20:23.724Z,7.82
2022-08-16T09:22:55.340Z,7.38
2022-08-16T09:25:35.394Z,7.55
2022-08-16T09:28:10.341Z,7.50
2022-08-16T09:30:59.422Z,8.43
2022-08-16T09:33:28.480Z,7.47
2022-08-16T09:36:12.347Z,7.28
2022-08-16T09:38:59.849Z,7.40
2022-08-16T09:41:30.049Z,7.55
2022-08-16T09:44:02.406Z,7.47
2022-08-16T09:46:49.933Z,7.88
2022-08-16T09:49:21.084Z,7.45
2022-08-16T09:51:54.938Z,7.80
2022-08-16T09:54:32.168Z,7.60
2022-08-16T09:57:01.438Z,7.30
2022-08-16T09:59:31.236Z,7.60
2022-08-16T10:02:26.239Z,8.27
2022-08-16T10:04:57.904Z,8.75
2022-08-16T10:07:55.820Z,9.43
2022-08-16T10:10:19.035Z,8.30
2022-08-16T10:13:16.242Z,8.32
2022-08-16T10:15:55.608Z,7.60
2022-08-16T10:19:00.232Z,8.02
2022-08-16T10:21:16.831Z,7.47
2022-08-16T10:23:46.474Z,9.95
2022-08-16T10:27:18.069Z,16.85
2022-08-16T10:29:05.782Z,17.42
2022-08-16T10:31:45.340Z,16.80
2022-08-16T10:34:31.597Z,31.05
2022-08-16T10:37:02.068Z,52.00
2022-08-16T10:39:32.972Z,46.65
2022-08-16T10:42:13.189Z,48.17
2022-08-16T10:44:42.686Z,45.33
2022-08-16T10:47:22.197Z,44.78
2022-08-16T10:49:52.013Z,43.78
2022-08-16T10:52:20.522Z,34.83
2022-08-16T10:55:37.282Z,27.00
2022-08-16T10:57:42.032Z,22.70
2022-08-16T11:00:22.565Z,20.33
2022-08-16T11:03:41.892Z,19.73
2022-08-16T11:05:59.950Z,18.17
2022-08-16T11:08:35.161Z,16.48
2022-08-16T11:11:11.773Z,18.40
2022-08-16T11:14:10.839Z,16.52
2022-08-16T11:19:26.122Z,15.82
2022-08-16T11:22:39.247Z,16.23
2022-08-16T11:25:11.465Z,15.90
2022-08-16T11:27:36.279Z,14.95
2022-08-16T11:30:12.130Z,15.45
2022-08-16T11:32:44.239Z,14.27
2022-08-16T11:35:16.592Z,13.95
2022-08-16T11:40:44.457Z,14.65
2022-08-16T11:43:16.760Z,13.40
2022-08-16T11:45:53.595Z,13.40
2022-08-16T11:48:24.135Z,13.90
2022-08-16T11:50:52.799Z,13.13
2022-08-16T11:53:24.288Z,13.10
2022-08-16T11:55:55.034Z,13.35
2022-08-16T11:58:26.060Z,13.15
2022-08-16T12:00:59.016Z,12.40
2022-08-16T12:03:35.376Z,13.05
2022-08-16T12:06:24.953Z,12.70
2022-08-16T12:09:02.152Z,12.18
2022-08-16T12:11:33.269Z,12.48
2022-08-16T12:14:04.622Z,12.05
2022-08-16T12:16:34.812Z,12.15
2022-08-16T12:19:04.631Z,12.77
2022-08-16T12:21:35.832Z,11.98
2022-08-16T12:24:23.992Z,12.38
2022-08-16T12:26:52.649Z,10.93
2022-08-16T12:29:22.777Z,10.70
2022-08-16T12:31:59.105Z,11.40
2022-08-16T12:34:50.530Z,10.70
2022-08-16T12:37:21.811Z,9.85
2022-08-16T12:39:56.173Z,9.55
2022-08-16T12:42:34.458Z,9.90
2022-08-16T12:45:05.742Z,10.05
2022-08-16T12:47:51.523Z,9.60
2022-08-16T12:50:32.981Z,9.93
2022-08-16T12:53:02.012Z,10.27
2022-08-16T12:55:41.648Z,9.60
2022-08-16T12:58:13.841Z,9.88
2022-08-16T13:00:59.562Z,10.05
2022-08-16T13:03:32.197Z,9.80
2022-08-16T13:06:08.292Z,9.98
2022-08-16T13:08:37.031Z,10.15
2022-08-16T13:11:08.118Z,10.18
2022-08-16T13:13:37.685Z,9.18
2022-08-16T13:16:15.274Z,9.57
2022-08-16T13:18:52.583Z,9.50
2022-08-16T13:21:23.311Z,9.27
2022-08-16T13:23:55.745Z,8.27
2022-08-16T13:26:26.752Z,8.85
2022-08-16T13:28:55.289Z,8.60
2022-08-16T13:31:24.070Z,7.78
2022-08-16T13:33:54.591Z,7.47
2022-08-16T13:39:18.199Z,7.72
2022-08-16T13:41:54.183Z,7.85
2022-08-16T13:44:48.687Z,7.60
2022-08-16T13:47:11.380Z,7.53
2022-08-16T13:49:41.313Z,7.80
2022-08-16T13:52:12.888Z,7.30
2022-08-16T13:54:41.583Z,7.28
2022-08-16T13:57:11.774Z,6.95
2022-08-16T13:59:40.985Z,7.25
2022-08-16T14:02:11.437Z,6.97
2022-08-16T14:04:42.847Z,7.22
2022-08-16T14:07:20.001Z,7.60
2022-08-16T14:09:55.333Z,6.85
2022-08-16T14:12:28.121Z,6.63
2022-08-16T14:14:57.588Z,6.65
2022-08-16T14:17:27.609Z,7.22
2022-08-16T14:19:59.751Z,6.45
2022-08-16T14:22:35.759Z,6.22
2022-08-16T14:25:16.394Z,6.90
2022-08-16T14:27:47.491Z,6.80
2022-08-16T14:30:19.334Z,6.78
2022-08-16T14:32:51.046Z,6.60
2022-08-16T14:35:36.399Z,6.53
2022-08-16T14:38:13.466Z,6.03
2022-08-16T14:40:52.496Z,6.30
2022-08-16T14:43:29.864Z,6.28
2022-08-16T14:45:59.372Z,6.40
2022-08-16T14:48:27.786Z,5.90
2022-08-16T14:50:56.509Z,6.82
2022-08-16T14:53:27.385Z,5.82
2022-08-16T14:55:56.242Z,6.15
2022-08-16T14:58:35.045Z,6.05
2022-08-16T15:01:10.094Z,6.28
2022-08-16T15:03:38.895Z,6.00
2022-08-16T15:06:14.348Z,6.35
2022-08-16T15:08:43.905Z,6.20
2022-08-16T15:11:14.274Z,6.05
2022-08-16T15:13:44.091Z,5.85
2022-08-16T15:16:12.290Z,6.00
2022-08-16T15:18:40.609Z,6.07
2022-08-16T15:21:09.575Z,6.03
2022-08-16T15:23:40.307Z,5.65
2022-08-16T15:26:09.511Z,5.97
2022-08-16T15:28:38.851Z,6.00
2022-08-16T15:31:13.647Z,6.13
2022-08-16T15:33:50.058Z,5.80
2022-08-16T15:36:22.599Z,5.95
2022-08-16T15:39:05.539Z,5.88
2022-08-16T15:42:03.567Z,5.75
2022-08-16T15:44:44.653Z,6.05
2022-08-16T15:47:26.014Z,5.75
2022-08-16T15:49:56.119Z,5.90
2022-08-16T15:52:30.680Z,5.10
2022-08-16T15:55:12.805Z,5.45
2022-08-16T15:57:41.913Z,5.68
2022-08-16T16:00:15.361Z,4.65
2022-08-16T16:02:46.766Z,5.50
2022-08-16T16:05:19.565Z,5.43
2022-08-16T16:07:56.872Z,5.32
2022-08-16T16:10:38.144Z,5.22
2022-08-16T16:13:09.585Z,5.35
2022-08-16T16:15:40.960Z,5.15
2022-08-16T16:18:12.239Z,5.45
2022-08-16T16:20:46.624Z,4.60
2022-08-16T16:23:18.885Z,4.93
2022-08-16T16:25:47.677Z,5.40
2022-08-16T16:29:08.272Z,5.47
2022-08-16T16:31:21.308Z,5.70
2022-08-16T16:33:55.896Z,5.40
2022-08-16T16:36:29.441Z,5.20
2022-08-16T16:38:58.415Z,5.00
2022-08-16T16:41:28.587Z,5.07
2022-08-16T16:44:01.014Z,5.35
2022-08-16T16:46:42.555Z,4.70
2022-08-16T16:49:15.090Z,4.88
2022-08-16T16:51:49.898Z,4.85
2022-08-16T16:54:27.768Z,4.80
2022-08-16T16:56:58.489Z,5.20
2022-08-16T16:59:28.028Z,5.00
2022-08-16T17:02:38.742Z,5.28
2022-08-16T17:04:49.012Z,4.80
2022-08-16T17:07:17.413Z,4.68
2022-08-16T17:09:47.281Z,5.00
2022-08-16T17:12:25.132Z,4.93
2022-08-16T17:15:07.396Z,4.68
2022-08-16T17:18:00.188Z,5.43
2022-08-16T17:20:29.246Z,5.00
2022-08-16T17:22:58.532Z,5.35
2022-08-16T17:25:36.425Z,5.03
2022-08-16T17:28:58.629Z,4.93
2022-08-16T17:30:56.674Z,5.20
2022-08-16T17:33:28.663Z,5.30
2022-08-16T17:36:08.671Z,5.45
2022-08-16T17:38:39.013Z,5.47
2022-08-16T17:41:13.845Z,5.10
2022-08-16T17:43:45.327Z,5.10
2022-08-16T17:46:51.034Z,4.95
2022-08-16T17:49:06.292Z,4.72
2022-08-16T17:51:35.988Z,5.00
2022-08-16T17:54:04.508Z,4.65
2022-08-16T17:56:33.569Z,5.10
2022-08-16T17:59:02.170Z,4.80
2022-08-16T18:01:30.602Z,4.85
2022-08-16T18:04:07.334Z,4.68
2022-08-16T18:06:39.908Z,5.00
2022-08-16T18:09:10.467Z,4.78
2022-08-16T18:11:44.514Z,5.40
2022-08-16T18:14:15.706Z,4.80
2022-08-16T18:16:46.309Z,4.90
2022-08-16T18:19:15.453Z,4.30
2022-08-16T18:22:02.922Z,4.82
2022-08-16T18:24:32.294Z,4.30
2022-08-16T18:27:25.560Z,4.68
2022-08-16T18:29:51.209Z,4.28
2022-08-16T18:32:22.026Z,4.72
2022-08-16T18:34:54.344Z,4.75
2022-08-16T18:37:24.984Z,4.43
2022-08-16T18:39:53.661Z,4.28
2022-08-16T18:42:22.357Z,4.75
2022-08-16T18:44:50.606Z,4.78
2022-08-16T18:47:20.236Z,4.30
2022-08-16T18:49:48.608Z,4.38
2022-08-16T18:52:25.128Z,4.40
2022-08-16T18:54:58.895Z,4.78
2022-08-16T18:57:42.148Z,4.75
2022-08-16T19:00:13.490Z,4.80
2022-08-16T19:02:58.436Z,4.22
2022-08-16T19:05:30.880Z,4.50
2022-08-16T19:07:59.348Z,4.78
2022-08-16T19:10:30.443Z,5.20
2022-08-16T19:12:59.529Z,4.93
2022-08-16T19:15:29.662Z,11.13
2022-08-16T19:17:58.299Z,6.60
2022-08-16T19:20:28.693Z,5.78
2022-08-16T19:23:05.126Z,4.90
2022-08-16T19:25:48.247Z,4.82
2022-08-16T19:28:50.465Z,5.60
2022-08-16T19:31:15.399Z,5.25
2022-08-16T19:33:53.741Z,5.07
2022-08-16T19:36:31.209Z,4.72
2022-08-16T19:39:04.589Z,4.85
2022-08-16T19:41:37.495Z,4.75
2022-08-16T19:44:06.918Z,4.63
2022-08-16T19:46:35.769Z,4.65
2022-08-16T19:49:04.546Z,5.05
2022-08-16T19:51:33.058Z,4.45
2022-08-16T19:54:01.362Z,5.07
2022-08-16T19:56:29.738Z,4.47
2022-08-16T19:59:18.809Z,5.32
2022-08-16T20:01:49.303Z,5.00
2022-08-16T20:04:17.816Z,5.80
2022-08-16T20:06:46.926Z,5.32
2022-08-16T20:09:15.785Z,5.82
2022-08-16T20:11:45.372Z,5.35
2022-08-16T20:14:24.269Z,5.35
2022-08-16T20:16:59.470Z,5.47
2022-08-16T20:19:29.836Z,5.55
2022-08-16T20:22:09.633Z,5.30
2022-08-16T20:24:39.139Z,5.35
2022-08-16T20:27:09.910Z,5.45
2022-08-16T20:29:43.512Z,4.82
2022-08-16T20:32:16.466Z,5.30
2022-08-16T20:34:46.989Z,5.13
2022-08-16T20:37:16.532Z,5.03
2022-08-16T20:39:46.230Z,5.55
2022-08-16T20:42:16.010Z,5.40
2022-08-16T20:44:46.195Z,5.22
2022-08-16T20:47:14.947Z,5.65
2022-08-16T20:49:43.361Z,5.80
2022-08-16T20:52:15.823Z,5.68
2022-08-16T20:54:45.576Z,6.00
2022-08-16T20:57:14.985Z,5.78
2022-08-16T20:59:49.843Z,6.63
2022-08-16T21:02:26.058Z,6.95
2022-08-16T21:04:55.268Z,6.18
2022-08-16T21:07:23.902Z,6.75
2022-08-16T21:09:52.383Z,6.50
2022-08-16T21:12:20.643Z,6.38
2022-08-16T21:14:50.803Z,6.63
2022-08-16T21:17:19.323Z,6.85
2022-08-16T21:19:47.676Z,6.80
2022-08-16T21:22:20.235Z,7.05
2022-08-16T21:24:53.883Z,6.70
2022-08-16T21:27:24.342Z,6.97
2022-08-16T21:29:54.685Z,6.85
2022-08-16T21:32:34.965Z,6.45
2022-08-16T21:35:09.897Z,6.72
2022-08-16T21:37:38.840Z,7.10
2022-08-16T21:40:09.652Z,7.47
2022-08-16T21:42:41.708Z,6.55
2022-08-16T21:45:15.102Z,6.45
2022-08-16T21:47:44.637Z,7.10
2022-08-16T21:50:14.271Z,7.40
2022-08-16T21:52:42.638Z,6.80
2022-08-16T21:55:11.484Z,7.60
2022-08-16T21:57:40.105Z,7.03
2022-08-16T22:00:14.827Z,7.22
2022-08-16T22:02:45.612Z,7.40
2022-08-16T22:05:16.316Z,6.75
2022-08-16T22:07:44.581Z,7.05
2022-08-16T22:11:04.922Z,7.28
2022-08-16T22:13:01.944Z,7.10
2022-08-16T22:15:31.802Z,7.35
2022-08-16T22:18:01.345Z,7.68
2022-08-16T22:20:30.972Z,7.30
2022-08-16T22:23:08.650Z,7.45
2022-08-16T22:25:38.157Z,7.80
2022-08-16T22:28:07.270Z,7.75
2022-08-16T22:30:37.441Z,7.47
2022-08-16T22:33:11.507Z,7.10
2022-08-16T22:35:49.469Z,7.13
2022-08-16T22:38:55.242Z,7.45
2022-08-16T22:41:07.434Z,7.63
2022-08-16T22:43:36.282Z,7.18
2022-08-16T22:46:06.682Z,7.38
2022-08-16T22:48:39.188Z,7.60
2022-08-16T22:51:09.672Z,7.28
2022-08-16T22:53:38.309Z,7.47
2022-08-16T22:56:07.277Z,7.93
2022-08-16T22:58:37.062Z,7.70
2022-08-16T23:01:09.833Z,7.22
2022-08-16T23:03:39.664Z,7.53
2022-08-16T23:06:10.553Z,7.53
2022-08-16T23:08:41.388Z,7.45
2022-08-16T23:11:12.758Z,7.30
2022-08-16T23:13:49.876Z,8.00
2022-08-16T23:16:33.662Z,7.85
2022-08-16T23:19:04.409Z,7.28
2022-08-16T23:21:33.003Z,7.13
2022-08-16T23:24:01.905Z,7.20
2022-08-16T23:26:46.735Z,6.70
2022-08-16T23:29:23.475Z,8.02
2022-08-16T23:31:58.594Z,7.38
2022-08-16T23:34:29.569Z,7.05
2022-08-16T23:36:58.336Z,7.28
2022-08-16T23:39:27.061Z,7.18
2022-08-16T23:41:55.713Z,7.40
2022-08-16T23:44:54.963Z,6.78
2022-08-16T23:47:14.718Z,7.15
2022-08-16T23:49:59.451Z,7.53
2022-08-16T23:52:53.877Z,6.93
2022-08-16T23:55:19.155Z,6.75
2022-08-16T23:57:47.808Z,7.22
